Arispe, Iowa
Current Conditions -  °F | °C
As of 7:35 AM on Friday 24 Oct 2014 (Local Time) from KCSQ Reporting Station
Moderate Fog Moderate Fog  
Wind Chill: 57°   Ceiling: 200
Heat Index: 57°   Visibility: 0.25mi
Dew Point: 57°   Wind: 12mph
Humidity: 100%   Direction: 200°SSW
Pressure: 29.99"   Gusts: 17mph
Location:  40.95°N, 94.22°W
Report Text: KCSQ 241235Z AUTO 20010G15KT 1/4SM FG OVC002 14/14 A2999 RMK AO2
Loading
Personal Weather Stations






























Interactive Weather Map
Tropical Storm Tracking
New forecast layout! Learn more

10-Day Weather Forecast

Advertisements
Track Severe Weather on mobile